createdAt,value
2019-04-23T00:00:14.032Z,15.43
2019-04-23T00:02:56.311Z,15.40
2019-04-23T00:05:35.315Z,15.42
2019-04-23T00:08:04.582Z,15.36
2019-04-23T00:10:25.269Z,15.37
2019-04-23T00:13:05.742Z,15.31
2019-04-23T00:15:21.521Z,15.31
2019-04-23T00:17:55.885Z,15.29
2019-04-23T00:20:25.717Z,15.25
2019-04-23T00:23:10.952Z,15.26
2019-04-23T00:25:56.153Z,15.27
2019-04-23T00:35:52.866Z,15.19
2019-04-23T00:40:51.432Z,14.57
2019-04-23T00:43:22.935Z,15.15
2019-04-23T00:45:54.980Z,15.14
2019-04-23T00:51:06.236Z,15.09
2019-04-23T00:53:25.173Z,15.12
2019-04-23T00:56:03.864Z,15.15
2019-04-23T00:58:31.247Z,15.13
2019-04-23T01:00:57.922Z,15.12
2019-04-23T01:03:21.483Z,15.08
2019-04-23T01:05:52.245Z,15.02
2019-04-23T01:08:26.330Z,14.99
2019-04-23T01:13:31.756Z,15.01
2019-04-23T01:16:08.985Z,14.99
2019-04-23T01:18:46.869Z,15.00
2019-04-23T01:20:54.181Z,15.00
2019-04-23T01:23:54.452Z,14.98
2019-04-23T01:26:39.074Z,14.98
2019-04-23T01:29:12.839Z,14.91
2019-04-23T01:31:49.301Z,14.89
2019-04-23T01:34:21.742Z,14.88
2019-04-23T01:36:46.458Z,14.87
2019-04-23T01:39:17.549Z,14.82
2019-04-23T01:41:49.216Z,14.79
2019-04-23T01:44:21.774Z,14.77
2019-04-23T01:46:49.293Z,14.71
2019-04-23T01:49:27.095Z,14.71
2019-04-23T01:54:19.252Z,14.66
2019-04-23T01:56:47.203Z,14.63
2019-04-23T01:59:18.319Z,14.64
2019-04-23T02:01:50.312Z,14.66
2019-04-23T02:04:22.867Z,14.63
2019-04-23T02:06:53.825Z,14.61
2019-04-23T02:09:16.910Z,13.85
2019-04-23T02:11:53.595Z,14.65
2019-04-23T02:14:21.230Z,14.63
2019-04-23T02:16:50.382Z,14.64
2019-04-23T02:19:23.551Z,14.60
2019-04-23T02:22:01.489Z,14.57
2019-04-23T02:24:34.099Z,14.54
2019-04-23T02:26:58.941Z,14.49
2019-04-23T02:29:44.718Z,14.49
2019-04-23T02:34:51.571Z,14.42
2019-04-23T02:37:15.288Z,14.42
2019-04-23T02:39:57.371Z,14.42
2019-04-23T02:47:34.783Z,14.28
2019-04-23T02:57:05.648Z,14.27
2019-04-23T03:07:27.330Z,14.17
2019-04-23T03:12:24.985Z,14.18
2019-04-23T03:17:26.356Z,14.20
2019-04-23T03:20:08.015Z,14.16
2019-04-23T03:22:55.951Z,14.16
2019-04-23T03:27:50.971Z,14.09
2019-04-23T03:30:53.104Z,14.04
2019-04-23T03:36:13.645Z,13.90
2019-04-23T03:38:13.334Z,13.95
2019-04-23T03:40:21.274Z,13.96
2019-04-23T03:43:06.439Z,14.02
2019-04-23T03:45:43.603Z,14.00
2019-04-23T03:50:37.096Z,13.92
2019-04-23T03:52:58.128Z,13.88
2019-04-23T03:58:05.018Z,13.82
2019-04-23T04:05:36.056Z,13.74
2019-04-23T04:08:13.723Z,13.71
2019-04-23T04:10:35.982Z,13.72
2019-04-23T04:13:22.808Z,13.72
2019-04-23T04:24:17.298Z,13.65
2019-04-23T04:30:33.744Z,13.68
2019-04-23T04:35:57.898Z,13.61
2019-04-23T04:38:36.419Z,13.61
2019-04-23T04:41:05.816Z,13.61
2019-04-23T04:43:33.303Z,13.63
2019-04-23T04:48:23.043Z,13.64
2019-04-23T04:51:00.292Z,13.65
2019-04-23T04:56:07.277Z,13.68
2019-04-23T05:03:28.517Z,13.70
2019-04-23T05:08:29.144Z,13.72
2019-04-23T05:11:05.376Z,13.72
2019-04-23T05:15:58.163Z,13.73
2019-04-23T05:19:08.597Z,13.70
2019-04-23T05:21:21.007Z,13.69
2019-04-23T05:31:18.702Z,13.79
2019-04-23T05:33:52.161Z,13.99
2019-04-23T05:41:21.965Z,14.00
2019-04-23T05:43:57.461Z,13.95
2019-04-23T05:46:27.744Z,13.94
2019-04-23T05:48:52.330Z,13.97
2019-04-23T05:51:27.981Z,14.01
2019-04-23T05:53:51.424Z,13.98
2019-04-23T05:56:21.377Z,13.97
2019-04-23T05:58:58.117Z,14.02
2019-04-23T06:01:51.150Z,14.05
2019-04-23T06:04:12.238Z,14.06
2019-04-23T06:09:10.897Z,14.01
2019-04-23T06:11:49.090Z,14.05
2019-04-23T06:14:19.158Z,14.10
2019-04-23T06:16:47.254Z,14.09
2019-04-23T06:19:07.942Z,14.14
2019-04-23T06:21:47.905Z,14.20
2019-04-23T06:24:15.045Z,14.22
2019-04-23T06:26:42.954Z,14.25
2019-04-23T06:29:19.155Z,14.26
2019-04-23T06:31:38.108Z,14.29
2019-04-23T06:34:14.074Z,14.29
2019-04-23T06:36:37.085Z,14.31
2019-04-23T06:39:01.333Z,14.37
2019-04-23T06:41:36.218Z,14.41
2019-04-23T06:49:23.689Z,14.41
2019-04-23T06:52:02.425Z,14.45
2019-04-23T06:54:25.614Z,14.48
2019-04-23T06:57:03.857Z,14.53
2019-04-23T06:59:27.352Z,14.57
2019-04-23T07:01:59.672Z,14.62
2019-04-23T07:04:33.156Z,14.68
2019-04-23T07:07:13.679Z,14.73
2019-04-23T07:09:13.112Z,14.76
2019-04-23T07:11:49.804Z,14.77
2019-04-23T07:14:21.882Z,14.75
2019-04-23T07:16:52.720Z,14.79
2019-04-23T07:19:33.886Z,14.80
2019-04-23T07:22:01.288Z,14.87
2019-04-23T07:24:21.757Z,14.90
2019-04-23T07:26:45.013Z,14.93
2019-04-23T07:29:25.426Z,14.91
2019-04-23T07:34:25.270Z,14.99
2019-04-23T07:36:55.774Z,15.02
2019-04-23T07:42:41.856Z,15.10
2019-04-23T07:45:16.075Z,15.17
2019-04-23T07:48:11.279Z,15.21
2019-04-23T07:50:51.123Z,15.26
2019-04-23T07:53:13.264Z,15.29
2019-04-23T07:55:41.097Z,15.31
2019-04-23T07:58:14.270Z,15.36
2019-04-23T08:00:41.760Z,15.39
2019-04-23T08:08:09.913Z,15.48
2019-04-23T08:10:46.720Z,15.54
2019-04-23T08:15:42.088Z,15.61
2019-04-23T08:18:13.648Z,15.66
2019-04-23T08:20:46.985Z,15.67
2019-04-23T08:23:28.324Z,15.71
2019-04-23T08:26:23.918Z,15.75
2019-04-23T08:28:48.860Z,15.81
2019-04-23T08:31:07.800Z,15.89
2019-04-23T08:33:42.209Z,15.94
2019-04-23T08:36:11.743Z,15.92
2019-04-23T08:41:22.895Z,15.97
2019-04-23T08:43:40.460Z,16.00
2019-04-23T08:46:26.876Z,16.02
2019-04-23T08:48:55.828Z,16.08
2019-04-23T08:51:31.506Z,16.11
2019-04-23T08:53:51.279Z,16.14
2019-04-23T08:56:27.815Z,16.18
2019-04-23T08:58:47.439Z,16.22
2019-04-23T09:01:18.546Z,16.27
2019-04-23T09:03:47.882Z,16.34
2019-04-23T09:06:22.246Z,16.37
2019-04-23T09:08:49.739Z,16.40
2019-04-23T09:11:37.038Z,16.43
2019-04-23T09:13:59.658Z,16.48
2019-04-23T09:16:22.288Z,16.47
2019-04-23T09:18:56.286Z,16.48
2019-04-23T09:21:25.729Z,16.54
2019-04-23T09:23:54.059Z,16.63
2019-04-23T09:26:22.149Z,16.70
2019-04-23T09:34:31.300Z,16.87
2019-04-23T09:37:06.120Z,16.93
2019-04-23T09:39:43.282Z,16.98
2019-04-23T09:42:27.706Z,17.04
2019-04-23T09:45:15.821Z,17.03
2019-04-23T09:47:58.813Z,17.06
2019-04-23T09:50:23.731Z,17.09
2019-04-23T09:53:06.689Z,17.09
2019-04-23T09:55:30.003Z,17.09
2019-04-23T09:57:56.749Z,17.13
2019-04-23T10:00:32.983Z,17.15
2019-04-23T10:02:41.639Z,17.17
2019-04-23T10:05:11.916Z,17.19
2019-04-23T10:07:41.897Z,17.21
2019-04-23T10:09:59.425Z,17.30
2019-04-23T10:12:28.241Z,17.35
2019-04-23T10:15:05.449Z,17.40
2019-04-23T10:17:28.386Z,17.48
2019-04-23T10:19:58.327Z,17.51
2019-04-23T10:22:27.261Z,17.50
2019-04-23T10:24:57.172Z,17.60
2019-04-23T10:27:27.229Z,17.63
2019-04-23T10:29:56.147Z,17.67
2019-04-23T10:32:25.460Z,17.65
2019-04-23T10:35:06.845Z,17.69
2019-04-23T10:37:34.576Z,17.76
2019-04-23T10:39:59.226Z,17.82
2019-04-23T10:42:26.502Z,17.90
2019-04-23T10:45:27.291Z,17.97
2019-04-23T10:48:32.613Z,18.01
2019-04-23T10:53:29.667Z,18.12
2019-04-23T10:58:31.520Z,18.22
2019-04-23T11:06:06.736Z,18.36
2019-04-23T11:08:30.968Z,18.43
2019-04-23T11:11:10.955Z,18.50
2019-04-23T11:13:56.640Z,18.58
2019-04-23T11:18:51.940Z,18.65
2019-04-23T11:21:13.710Z,18.67
2019-04-23T11:23:42.914Z,18.69
2019-04-23T11:26:15.175Z,18.74
2019-04-23T11:28:38.467Z,18.82
2019-04-23T11:31:26.027Z,18.85
2019-04-23T11:33:52.384Z,18.83
2019-04-23T11:36:43.604Z,18.86
2019-04-23T11:41:27.644Z,19.10
2019-04-23T11:43:48.589Z,19.22
2019-04-23T11:46:34.025Z,19.26
2019-04-23T11:48:59.632Z,19.31
2019-04-23T11:53:52.472Z,19.41
2019-04-23T11:56:49.201Z,19.43
2019-04-23T11:58:45.841Z,19.49
2019-04-23T12:01:41.959Z,19.56
2019-04-23T12:06:55.918Z,19.62
2019-04-23T12:09:40.096Z,19.66
2019-04-23T12:22:21.889Z,19.99
2019-04-23T12:25:06.391Z,20.02
2019-04-23T12:27:23.258Z,20.03
2019-04-23T12:29:54.558Z,20.06
2019-04-23T12:35:01.478Z,20.12
2019-04-23T12:37:42.817Z,20.24
2019-04-23T12:40:13.029Z,20.41
2019-04-23T12:42:48.889Z,20.50
2019-04-23T12:45:03.517Z,20.55
2019-04-23T12:47:43.850Z,20.60
2019-04-23T12:52:34.151Z,20.84
2019-04-23T12:55:06.759Z,20.91
2019-04-23T12:57:34.417Z,20.87
2019-04-23T13:02:39.869Z,20.94
2019-04-23T13:05:00.307Z,20.97
2019-04-23T13:10:11.918Z,21.09
2019-04-23T13:12:52.972Z,21.23
2019-04-23T13:15:05.303Z,21.38
2019-04-23T13:22:39.784Z,21.64
2019-04-23T13:25:18.196Z,21.70
2019-04-23T13:27:54.357Z,21.82
2019-04-23T13:30:23.229Z,21.85
2019-04-23T13:33:13.198Z,21.99
2019-04-23T13:35:42.020Z,22.10
2019-04-23T13:40:24.199Z,22.41
2019-04-23T13:45:51.204Z,22.61
2019-04-23T13:50:37.469Z,22.61
2019-04-23T13:53:08.147Z,22.73
2019-04-23T13:55:14.704Z,22.87
2019-04-23T13:58:07.483Z,22.87
2019-04-23T14:00:36.917Z,22.77
2019-04-23T14:05:26.866Z,23.02
2019-04-23T14:08:05.706Z,23.19
2019-04-23T14:13:15.046Z,23.27
2019-04-23T14:15:41.311Z,23.33
2019-04-23T14:20:33.434Z,23.38
2019-04-23T14:23:17.873Z,23.46
2019-04-23T14:25:47.940Z,23.60
2019-04-23T14:33:15.312Z,23.47
2019-04-23T14:35:40.308Z,23.41
2019-04-23T14:46:23.054Z,23.80
2019-04-23T14:48:23.412Z,23.85
2019-04-23T14:51:02.492Z,23.85
2019-04-23T14:53:33.837Z,23.89
2019-04-23T14:56:00.486Z,23.94
2019-04-23T15:01:16.012Z,23.98
2019-04-23T15:03:40.346Z,23.87
2019-04-23T15:06:15.501Z,23.78
2019-04-23T15:08:44.597Z,23.85
2019-04-23T15:13:36.855Z,24.09
2019-04-23T15:24:04.138Z,24.06
2019-04-23T15:27:29.569Z,24.04
2019-04-23T15:28:35.738Z,24.06
2019-04-23T15:31:28.319Z,24.09
2019-04-23T15:34:03.751Z,24.13
2019-04-23T15:36:52.399Z,24.10
2019-04-23T15:39:15.423Z,24.21
2019-04-23T15:41:32.224Z,24.24
2019-04-23T15:44:06.083Z,24.10
2019-04-23T15:49:07.105Z,23.85
2019-04-23T15:54:06.719Z,23.67
2019-04-23T15:56:35.916Z,23.58
2019-04-23T15:59:13.248Z,23.53
2019-04-23T16:01:34.693Z,23.28
2019-04-23T16:03:31.970Z,22.94
2019-04-23T16:06:02.594Z,22.61
2019-04-23T16:09:05.169Z,22.27
2019-04-23T16:16:43.224Z,21.66
2019-04-23T16:19:16.713Z,21.55
2019-04-23T16:24:12.903Z,21.35
2019-04-23T16:26:52.453Z,21.21
2019-04-23T16:29:25.493Z,21.13
2019-04-23T16:31:39.942Z,21.09
2019-04-23T16:34:28.677Z,21.03
2019-04-23T16:36:56.425Z,20.96
2019-04-23T16:39:21.442Z,20.92
2019-04-23T16:42:02.194Z,20.88
2019-04-23T16:44:36.709Z,20.82
2019-04-23T16:47:04.497Z,20.79
2019-04-23T16:49:42.341Z,20.74
2019-04-23T16:51:55.420Z,20.71
2019-04-23T16:54:31.431Z,20.66
2019-04-23T16:59:37.013Z,20.54
2019-04-23T17:06:57.863Z,20.36
2019-04-23T17:09:38.611Z,20.30
2019-04-23T17:12:06.028Z,20.27
2019-04-23T17:14:23.393Z,20.27
2019-04-23T17:16:53.677Z,20.27
2019-04-23T17:19:29.485Z,20.22
2019-04-23T17:27:08.521Z,20.12
2019-04-23T17:29:35.163Z,20.09
2019-04-23T17:32:07.121Z,20.06
2019-04-23T17:37:19.915Z,20.04
2019-04-23T17:40:03.578Z,20.02
2019-04-23T17:42:28.998Z,19.98
2019-04-23T17:45:28.452Z,19.97
2019-04-23T17:47:43.756Z,19.91
2019-04-23T17:50:14.046Z,19.91
2019-04-23T17:52:47.472Z,19.85
2019-04-23T17:57:45.960Z,19.77
2019-04-23T18:10:25.259Z,19.57
2019-04-23T18:12:53.701Z,19.48
2019-04-23T18:15:15.782Z,19.46
2019-04-23T18:17:54.776Z,19.45
2019-04-23T18:20:58.054Z,19.42
2019-04-23T18:23:08.483Z,19.37
2019-04-23T18:25:45.708Z,19.32
2019-04-23T18:28:08.892Z,19.28
2019-04-23T18:36:08.338Z,19.15
2019-04-23T18:38:45.921Z,19.10
2019-04-23T18:43:51.117Z,19.02
2019-04-23T18:46:27.998Z,18.98
2019-04-23T18:48:50.084Z,18.99
2019-04-23T18:51:33.654Z,18.95
2019-04-23T18:58:54.610Z,18.89
2019-04-23T19:06:37.792Z,18.85
2019-04-23T19:09:32.513Z,18.80
2019-04-23T19:12:28.257Z,18.78
2019-04-23T19:14:47.807Z,18.76
2019-04-23T19:19:48.380Z,17.49
2019-04-23T19:22:27.252Z,18.64
2019-04-23T19:24:46.767Z,18.62
2019-04-23T19:32:24.375Z,18.49
2019-04-23T19:34:53.027Z,18.45
2019-04-23T19:37:35.245Z,18.37
2019-04-23T19:39:53.229Z,18.30
2019-04-23T19:42:26.642Z,18.26
2019-04-23T19:44:54.452Z,18.19
2019-04-23T19:47:38.548Z,18.14
2019-04-23T19:49:55.147Z,18.12
2019-04-23T19:52:52.001Z,18.08
2019-04-23T19:59:58.005Z,18.00
2019-04-23T20:02:45.345Z,17.99
2019-04-23T20:05:00.810Z,17.99
2019-04-23T20:07:44.672Z,17.94
2019-04-23T20:14:56.434Z,17.83
2019-04-23T20:17:40.979Z,17.79
2019-04-23T20:20:06.206Z,17.76
2019-04-23T20:22:42.205Z,17.74
2019-04-23T20:27:33.689Z,17.70
2019-04-23T20:35:31.994Z,17.60
2019-04-23T20:45:39.592Z,17.45
2019-04-23T20:48:02.239Z,16.69
2019-04-23T20:50:34.741Z,17.41
2019-04-23T20:53:00.038Z,17.38
2019-04-23T20:55:51.124Z,17.36
2019-04-23T20:58:11.116Z,17.32
2019-04-23T21:01:00.311Z,17.28
2019-04-23T21:05:59.970Z,17.19
2019-04-23T21:08:41.057Z,17.13
2019-04-23T21:10:53.700Z,17.12
2019-04-23T21:13:43.347Z,17.08
2019-04-23T21:15:54.594Z,17.05
2019-04-23T21:18:34.539Z,17.03
2019-04-23T21:23:32.198Z,16.98
2019-04-23T21:25:52.515Z,16.93
2019-04-23T21:28:35.910Z,16.90
2019-04-23T21:33:35.401Z,16.87
2019-04-23T21:36:43.030Z,16.85
2019-04-23T21:39:40.736Z,16.84
2019-04-23T21:44:28.891Z,16.77
2019-04-23T21:47:04.612Z,16.74
2019-04-23T21:52:04.967Z,16.64
2019-04-23T21:54:36.554Z,16.56
2019-04-23T21:57:01.785Z,16.54
2019-04-23T21:59:34.437Z,16.51
2019-04-23T22:02:03.498Z,16.49
2019-04-23T22:07:11.553Z,16.40
2019-04-23T22:14:40.138Z,16.34
2019-04-23T22:19:37.773Z,16.30
2019-04-23T22:22:00.931Z,16.30
2019-04-23T22:24:46.492Z,16.29
2019-04-23T22:27:02.844Z,16.29
2019-04-23T22:29:41.890Z,16.30
2019-04-23T22:32:04.399Z,16.26
2019-04-23T22:37:17.115Z,16.27
2019-04-23T22:39:45.686Z,16.28
2019-04-23T22:42:35.000Z,16.26
2019-04-23T22:44:57.661Z,16.23
2019-04-23T22:49:53.096Z,16.23
2019-04-23T22:54:57.352Z,16.18
2019-04-23T22:57:11.638Z,16.15
2019-04-23T23:00:04.479Z,16.11
2019-04-23T23:07:57.738Z,16.09
2019-04-23T23:10:24.586Z,16.04
2019-04-23T23:12:58.596Z,15.99
2019-04-23T23:15:22.706Z,15.99
2019-04-23T23:18:02.388Z,15.98
2019-04-23T23:20:22.557Z,15.99
2019-04-23T23:22:57.347Z,16.01
2019-04-23T23:25:25.627Z,15.97
2019-04-23T23:27:58.955Z,15.94
2019-04-23T23:30:23.245Z,15.92
2019-04-23T23:32:55.670Z,15.91
2019-04-23T23:37:50.496Z,15.88
2019-04-23T23:40:26.547Z,15.86
2019-04-23T23:43:07.161Z,15.88
2019-04-23T23:47:59.279Z,15.81
2019-04-23T23:50:25.158Z,15.83
2019-04-23T23:53:02.705Z,15.84
2019-04-23T23:55:25.157Z,15.86
2019-04-23T23:58:01.846Z,15.84
